Time;durP1;ratioP1;P1;durP2;ratioP2;P2;SDS_P1;SDS_P2;PMS_P1;PMS_P2;Temp;Humidity;BMP_temperature;BMP_pressure;BME280_temperature;BME280_humidity;BME280_pressure;Samples;Min_cycle;Max_cycle;Signal;HPM_P1;HPM_P2
2023/05/10 00:00:18;242945.00;0.81;419.82;89765.00;0.30;155.90;;;;;19.20;3.00;;;;;;2552374;56;1052;-86
2023/05/10 00:02:45;181117.00;0.60;313.41;88679.00;0.30;154.03;;;;;19.10;2.90;;;;;;2552393;56;984;-87
2023/05/10 00:05:12;344675.00;1.15;594.71;99015.00;0.33;171.87;;;;;18.90;4.10;;;;;;2550222;56;1396;-87
2023/05/10 00:07:39;213930.00;0.71;369.90;92550.00;0.31;160.71;;;;;18.90;4.30;;;;;;2550272;56;979;-87
2023/05/10 00:10:06;312218.00;1.04;538.92;92516.00;0.31;160.65;;;;;18.60;5.10;;;;;;2552082;56;1956;-88
2023/05/10 00:12:33;222823.00;0.74;385.20;92702.00;0.31;160.97;;;;;18.50;5.30;;;;;;2550269;56;1140;-86
2023/05/10 00:15:02;216943.00;0.72;375.08;98770.00;0.33;171.45;;;;;18.60;6.20;;;;;;2550169;56;1272;-86
2023/05/10 00:17:29;362065.00;1.21;624.60;99524.00;0.33;172.75;;;;;18.60;5.20;;;;;;2550256;56;1182;-85
2023/05/10 00:19:56;262792.00;0.88;453.95;82442.00;0.27;143.26;;;;;18.40;6.00;;;;;;2552359;56;1099;-88
2023/05/10 00:22:23;367521.00;1.23;633.98;89378.00;0.30;155.23;;;;;18.40;5.50;;;;;;2550246;56;1088;-86
2023/05/10 00:24:50;266040.00;0.89;459.53;88729.00;0.30;154.11;;;;;18.20;6.70;;;;;;2550156;56;1283;-86
2023/05/10 00:27:17;321418.00;1.07;554.74;101643.00;0.34;176.41;;;;;18.30;6.20;;;;;;2552395;56;924;-86
2023/05/10 00:29:44;384726.00;1.28;663.55;81867.00;0.27;142.26;;;;;18.40;5.90;;;;;;2552360;56;1895;-86
2023/05/10 00:32:13;194861.00;0.65;337.08;83524.00;0.28;145.12;;;;;18.50;5.60;;;;;;2552375;56;1095;-87
2023/05/10 00:34:40;286369.00;0.95;494.49;92656.00;0.31;160.89;;;;;18.70;5.20;;;;;;2550060;56;1368;-84
2023/05/10 00:37:07;334451.00;1.11;577.14;84224.00;0.28;146.33;;;;;18.80;5.30;;;;;;2552369;56;978;-85
2023/05/10 00:39:34;286814.00;0.96;495.25;96254.00;0.32;167.11;;;;;18.80;4.50;;;;;;2552362;56;941;-85
2023/05/10 00:42:01;281819.00;0.94;486.66;85764.00;0.29;148.99;;;;;18.90;4.50;;;;;;2552262;56;1678;-85
2023/05/10 00:44:28;232505.00;0.78;401.86;90764.00;0.30;157.63;;;;;19.30;3.10;;;;;;2552328;56;1257;-86
2023/05/10 00:46:56;209101.00;0.70;361.59;81808.00;0.27;142.16;;;;;19.20;2.80;;;;;;2550204;56;1115;-87
2023/05/10 00:49:24;276598.00;0.92;477.69;84738.00;0.28;147.22;;;;;19.10;3.30;;;;;;2550191;56;1093;-86
2023/05/10 00:51:51;350637.00;1.17;604.96;97168.00;0.32;168.68;;;;;19.20;2.60;;;;;;2550177;56;1954;-86
2023/05/10 00:54:18;238996.00;0.80;413.02;83349.00;0.28;144.82;;;;;19.00;3.50;;;;;;2550094;56;1346;-84
2023/05/10 00:56:48;362621.00;1.21;625.55;86978.00;0.29;151.09;;;;;18.60;4.60;;;;;;2550211;56;1021;-85
2023/05/10 00:59:16;262980.00;0.88;454.27;103580.00;0.35;179.75;;;;;18.60;4.80;;;;;;2552300;56;2080;-87
2023/05/10 01:01:43;357420.00;1.19;616.61;86332.00;0.29;149.97;;;;;18.70;3.50;;;;;;2551717;56;2112;-86
2023/05/10 01:04:11;231567.00;0.77;400.24;88099.00;0.29;153.03;;;;;18.50;4.10;;;;;;2550340;56;1429;-87
2023/05/10 01:06:40;351022.00;1.17;605.62;92742.00;0.31;161.04;;;;;18.20;4.80;;;;;;2552486;56;1749;-85
2023/05/10 01:09:07;296848.00;0.99;512.50;96639.00;0.32;167.77;;;;;18.30;4.90;;;;;;2552466;56;1535;-86
2023/05/10 01:11:36;252881.00;0.84;436.91;90711.00;0.30;157.54;;;;;18.30;4.90;;;;;;2552468;56;1948;-86
2023/05/10 01:14:04;304366.00;1.01;525.43;89210.00;0.30;154.94;;;;;18.40;5.00;;;;;;2550376;56;1328;-87
2023/05/10 01:16:36;258533.00;0.86;446.63;90617.00;0.30;157.37;;;;;18.30;4.90;;;;;;2552415;56;1596;-86
2023/05/10 01:19:07;370857.00;1.24;639.71;72984.00;0.24;126.92;;;;;18.50;4.60;;;;;;2552545;56;1547;-88
2023/05/10 01:21:44;713960.00;2.38;1231.46;117519.00;0.39;203.80;;;;;18.30;5.00;;;;;;2552542;56;2137;-87
2023/05/10 01:24:40;575507.00;1.92;991.95;0.00;0.00;0.62;;;;;18.20;5.20;;;;;;2550301;56;1423;-85
2023/05/10 01:27:41;396620.00;1.32;683.99;0.00;0.00;0.62;;;;;18.10;5.70;;;;;;2552449;56;1673;-86
2023/05/10 01:30:36;200660.00;0.67;347.06;0.00;0.00;0.62;;;;;18.00;6.80;;;;;;2544012;56;1941;-86
2023/05/10 01:33:12;328150.00;1.09;566.31;0.00;0.00;0.62;;;;;18.20;6.10;;;;;;2552376;56;1408;-86
2023/05/10 01:35:47;1239169.00;4.13;2161.20;322087.00;1.07;555.89;;;;;18.20;4.90;;;;;;2552434;56;1488;-87
2023/05/10 01:38:20;522583.00;1.74;900.71;88812.00;0.30;154.26;;;;;18.00;5.80;;;;;;2550463;56;1108;-87
2023/05/10 01:41:02;368456.00;1.23;635.58;91765.00;0.31;159.36;;;;;17.90;5.30;;;;;;2552507;56;920;-87
2023/05/10 01:43:36;132743408.00;442.48;94780592.00;81604.00;0.27;141.81;;;;;18.20;5.40;;;;;;2550312;56;1431;-88
2023/05/10 01:46:10;971923.00;3.24;1682.81;188384.00;0.63;325.93;;;;;18.00;5.80;;;;;;2552438;56;1646;-88
2023/05/10 01:48:46;1056341.00;3.52;1832.52;116932.00;0.39;202.79;;;;;18.40;5.00;;;;;;2552612;56;926;-87
2023/05/10 01:51:16;850055.00;2.83;1468.56;2864.00;0.01;5.58;;;;;18.50;4.70;;;;;;2552464;56;1921;-87
2023/05/10 01:53:45;725737.00;2.42;1251.90;0.00;0.00;0.62;;;;;18.20;4.90;;;;;;2550363;56;1375;-86
2023/05/10 01:56:14;932167.00;3.11;1612.69;136602.00;0.46;236.71;;;;;18.30;4.60;;;;;;2552437;56;1715;-87
2023/05/10 01:58:46;1047662.00;3.49;1817.07;154666.00;0.52;267.85;;;;;18.30;4.90;;;;;;2552387;56;1057;-87
2023/05/10 02:01:14;911352.00;3.04;1576.07;24050.00;0.08;42.28;;;;;18.30;4.70;;;;;;2550296;56;1057;-87
2023/05/10 02:03:44;1047945.00;3.49;1817.58;132770.00;0.44;230.11;;;;;18.50;3.20;;;;;;2552392;56;1308;-87
2023/05/10 02:06:13;1281958.00;4.27;2239.12;189253.00;0.63;327.42;;;;;18.70;3.70;;;;;;2552407;56;1583;-85
2023/05/10 02:08:42;977318.00;3.26;1692.34;126158.00;0.42;218.70;;;;;18.80;2.10;;;;;;2552352;56;1453;-88
2023/05/10 02:11:12;1049043.00;3.50;1819.53;192966.00;0.64;333.81;;;;;18.80;2.70;;;;;;2550167;56;1899;-86
2023/05/10 02:13:40;1284120.00;4.28;2243.07;134561.00;0.45;233.19;;;;;18.90;1.70;;;;;;2550347;56;1368;-87
2023/05/10 02:16:09;1078717.00;3.60;1872.40;189389.00;0.63;327.66;;;;;18.90;1.50;;;;;;2552401;56;2035;-87
2023/05/10 02:18:37;1115516.00;3.72;1938.19;170650.00;0.57;295.39;;;;;18.70;1.60;;;;;;2552491;56;892;-88
2023/05/10 02:21:06;1282674.00;4.28;2240.43;199339.00;0.66;344.79;;;;;18.70;1.80;;;;;;2552344;56;1526;-86
2023/05/10 02:23:35;1623825.00;5.41;2878.36;267833.00;0.89;462.62;;;;;18.80;1.40;;;;;;2550334;56;1254;-87
2023/05/10 02:26:05;1151023.00;3.84;2001.92;164581.00;0.55;284.93;;;;;18.70;1.00;;;;;;2552374;56;1555;-87
2023/05/10 02:28:34;1162952.00;3.88;2023.38;156296.00;0.52;270.66;;;;;18.50;1.90;;;;;;2550231;56;1060;-87
2023/05/10 02:31:02;990746.00;3.30;1716.09;112230.00;0.37;194.68;;;;;18.60;1.70;;;;;;2552365;56;1902;-86
2023/05/10 02:33:32;959468.00;3.20;1660.81;178835.00;0.60;309.48;;;;;18.60;1.30;;;;;;2552412;56;1685;-86
2023/05/10 02:35:59;903029.00;3.01;1561.44;123887.00;0.41;214.79;;;;;18.70;1.00;;;;;;2552437;56;1517;-87
2023/05/10 02:38:28;1249552.00;4.17;2180.07;186506.00;0.62;322.69;;;;;18.60;1.40;;;;;;2552475;56;1082;-87
2023/05/10 02:40:56;1133607.00;3.78;1970.63;64038.00;0.21;111.46;;;;;18.50;1.60;;;;;;2552502;56;886;-88
2023/05/10 02:43:25;955276.00;3.18;1653.42;163111.00;0.54;282.40;;;;;18.40;1.60;;;;;;2550235;56;1371;-86
2023/05/10 02:45:52;1580110.00;5.27;2794.79;267865.00;0.89;462.67;;;;;18.50;1.40;;;;;;2552524;56;932;-87
2023/05/10 02:48:19;793841.00;2.65;1370.38;139023.00;0.46;240.89;;;;;18.50;1.60;;;;;;2550329;56;1044;-86
2023/05/10 02:50:51;723400.00;2.41;1247.84;116707.00;0.39;202.40;;;;;18.40;1.70;;;;;;2552384;56;2197;-86
2023/05/10 02:53:24;977151.00;3.26;1692.05;88513.00;0.30;153.74;;;;;18.50;1.00;;;;;;2550268;56;1440;-86
2023/05/10 02:55:58;811409.00;2.70;1401.03;43297.00;0.14;75.59;;;;;18.50;1.00;;;;;;2552383;56;1271;-86
2023/05/10 02:58:25;1017364.00;3.39;1763.25;75344.00;0.25;130.99;;;;;18.30;1.20;;;;;;2550214;56;1140;-85
2023/05/10 03:00:52;744135.00;2.48;1283.86;98243.00;0.33;170.54;;;;;18.40;1.10;;;;;;2552341;56;1061;-87
2023/05/10 03:03:19;868989.00;2.90;1501.72;108535.00;0.36;188.30;;;;;18.40;1.00;;;;;;2550360;56;1326;-85
2023/05/10 03:05:45;673249.00;2.24;1160.88;84000.00;0.28;145.95;;;;;18.60;1.00;;;;;;2552461;56;1617;-88
2023/05/10 03:08:13;661085.00;2.20;1139.82;89834.00;0.30;156.02;;;;;18.50;1.00;;;;;;2550310;56;981;-87
2023/05/10 03:10:52;864756.00;2.88;1494.30;151175.00;0.50;261.83;;;;;18.20;1.00;;;;;;2552512;56;1956;-86
2023/05/10 03:13:35;1147968.00;3.83;1996.42;80135.00;0.27;139.27;;;;;18.30;1.00;;;;;;2550312;56;1365;-86
2023/05/10 03:16:09;761218.00;2.54;1313.57;55615.00;0.19;96.90;;;;;18.20;1.10;;;;;;2550396;56;1066;-88
2023/05/10 03:18:45;762617.00;2.54;1316.00;36205.00;0.12;63.32;;;;;18.10;1.00;;;;;;2552634;56;1099;-88
2023/05/10 03:21:15;651181.00;2.17;1122.68;15529.00;0.05;27.53;;;;;18.10;1.10;;;;;;2552458;56;1449;-86
2023/05/10 03:23:46;938086.00;3.13;1623.11;39826.00;0.13;69.59;;;;;18.00;1.70;;;;;;2550288;56;1325;-87
2023/05/10 03:26:21;646223.00;2.15;1114.10;32587.00;0.11;57.06;;;;;18.00;2.20;;;;;;2552561;56;1168;-86
2023/05/10 03:28:50;938929.00;3.13;1624.60;93612.00;0.31;162.54;;;;;17.70;3.20;;;;;;2550416;56;1116;-87
2023/05/10 03:31:18;645886.00;2.15;1113.52;21423.00;0.07;37.73;;;;;17.80;2.40;;;;;;2550384;56;1906;-89
2023/05/10 03:33:49;628006.00;2.09;1082.60;65442.00;0.22;113.88;;;;;17.90;3.10;;;;;;2552577;56;1281;-87
2023/05/10 03:36:16;670829.00;2.24;1156.69;28834.00;0.10;50.56;;;;;18.20;2.00;;;;;;2552565;56;952;-86
2023/05/10 03:38:43;506448.00;1.69;872.93;10251.00;0.03;18.38;;;;;18.20;1.80;;;;;;2552594;56;1724;-86
2023/05/10 03:41:10;601744.00;2.01;1037.23;8776.00;0.03;15.83;;;;;18.10;1.60;;;;;;2550443;56;1111;-89
2023/05/10 03:43:36;552757.00;1.84;952.71;0.00;0.00;0.62;;;;;18.10;2.40;;;;;;2552590;56;1341;-87
2023/05/10 03:46:05;804915.00;2.68;1389.70;51810.00;0.17;90.32;;;;;18.10;1.80;;;;;;2550332;56;1150;-86
2023/05/10 03:48:34;625854.00;2.09;1078.88;0.00;0.00;0.62;;;;;17.90;2.00;;;;;;2552454;56;1679;-87
2023/05/10 03:51:01;418711.00;1.40;721.97;0.00;0.00;0.62;;;;;17.90;2.30;;;;;;2552459;56;1952;-87
2023/05/10 03:53:28;457315.00;1.52;788.37;66152.00;0.22;115.11;;;;;18.00;2.20;;;;;;2547217;40;3535;-88
2023/05/10 03:55:55;424017.00;1.41;731.10;24232.00;0.08;42.60;;;;;17.90;1.80;;;;;;2552308;56;1646;-88
2023/05/10 03:58:22;529247.00;1.76;912.19;35606.00;0.12;62.29;;;;;18.10;2.10;;;;;;2550317;56;1057;-88
2023/05/10 04:00:49;466412.00;1.55;804.02;4639.00;0.02;8.66;;;;;17.90;2.10;;;;;;2552553;56;1051;-87
2023/05/10 04:03:17;466292.00;1.55;803.81;35075.00;0.12;61.37;;;;;18.00;2.60;;;;;;2550330;56;1376;-88
2023/05/10 04:05:44;593275.00;1.98;1022.61;0.00;0.00;0.62;;;;;18.10;2.10;;;;;;2550389;56;1096;-87
2023/05/10 04:08:16;562484.00;1.87;969.48;23162.00;0.08;40.75;;;;;18.20;2.00;;;;;;2550328;56;1127;-87
2023/05/10 04:10:43;111613.00;0.37;193.61;2750.00;0.01;5.39;;;;;18.30;1.50;;;;;;2552259;56;1599;-87
2023/05/10 04:13:11;143651.00;0.48;248.86;0.00;0.00;0.62;;;;;18.30;2.20;;;;;;2550270;56;1961;-88
2023/05/10 04:15:38;32583.00;0.11;57.05;0.00;0.00;0.62;;;;;18.50;2.50;;;;;;2552263;56;1016;-89
2023/05/10 04:18:05;96034.00;0.32;166.73;0.00;0.00;0.62;;;;;18.50;1.30;;;;;;2550312;56;1045;-86
2023/05/10 04:20:34;335586.00;1.12;579.09;22181.00;0.07;39.05;;;;;18.30;1.10;;;;;;2552556;56;958;-88
2023/05/10 04:23:01;188648.00;0.63;326.38;0.00;0.00;0.62;;;;;18.30;1.00;;;;;;2550216;56;1104;-89
2023/05/10 04:25:28;34641.00;0.12;60.62;0.00;0.00;0.62;;;;;18.10;2.30;;;;;;2552381;56;1562;-88
2023/05/10 04:27:55;108865.00;0.36;188.87;0.00;0.00;0.62;;;;;18.10;2.40;;;;;;2552461;56;1493;-88
2023/05/10 04:30:22;234400.00;0.78;405.12;28656.00;0.10;50.26;;;;;18.20;2.80;;;;;;2552582;56;948;-86
2023/05/10 04:32:49;137976.00;0.46;239.08;0.00;0.00;0.62;;;;;18.10;2.40;;;;;;2550397;56;1895;-87
2023/05/10 04:35:16;167688.00;0.56;290.28;0.00;0.00;0.62;;;;;18.10;2.30;;;;;;2550537;56;1340;-87
2023/05/10 04:37:44;211361.00;0.70;365.48;8022.00;0.03;14.52;;;;;18.20;2.30;;;;;;2550197;56;1111;-85
2023/05/10 04:40:12;126380.00;0.42;219.09;0.00;0.00;0.62;;;;;18.10;2.40;;;;;;2552517;56;1643;-87
2023/05/10 04:42:42;168264.00;0.56;291.28;0.00;0.00;0.62;;;;;18.20;2.20;;;;;;2552513;56;1588;-87
2023/05/10 04:45:10;45542.00;0.15;79.48;0.00;0.00;0.62;;;;;18.00;2.20;;;;;;2552476;56;1583;-87
2023/05/10 04:47:37;157069.00;0.52;271.99;0.00;0.00;0.62;;;;;18.10;2.70;;;;;;2552518;56;1430;-85
2023/05/10 04:50:05;0.00;0.00;0.62;0.00;0.00;0.62;;;;;18.20;1.70;;;;;;2552640;56;1755;-86
2023/05/10 04:52:32;33152.00;0.11;58.04;0.00;0.00;0.62;;;;;18.40;1.40;;;;;;2552534;56;1960;-87
2023/05/10 04:55:00;127716.00;0.43;221.39;0.00;0.00;0.62;;;;;18.40;1.90;;;;;;2552630;56;1384;-87
2023/05/10 04:57:27;395711.00;1.32;682.43;63411.00;0.21;110.37;;;;;18.70;1.00;;;;;;2552640;56;1714;-86
2023/05/10 05:02:30;293860.00;0.98;507.37;1829.00;0.01;3.79;;;;;18.60;1.00;;;;;;2550460;56;1594;-89
2023/05/10 05:04:58;252537.00;0.84;436.31;0.00;0.00;0.62;;;;;18.50;1.00;;;;;;2550430;56;1326;-87
2023/05/10 05:07:25;35678.00;0.12;62.41;0.00;0.00;0.62;;;;;18.40;1.50;;;;;;2550423;56;1092;-88
2023/05/10 05:09:52;188805.00;0.63;326.65;0.00;0.00;0.62;;;;;18.40;1.30;;;;;;2550383;56;1639;-87
2023/05/10 05:12:20;300181.00;1.00;518.23;0.00;0.00;0.62;;;;;18.50;1.00;;;;;;2550396;56;1895;-86
2023/05/10 05:14:49;87536.00;0.29;152.05;0.00;0.00;0.62;;;;;18.50;1.40;;;;;;2552493;56;1552;-90
2023/05/10 05:17:16;22335.00;0.07;39.31;0.00;0.00;0.62;;;;;18.50;1.00;;;;;;2552545;56;973;-85
2023/05/10 05:19:43;169766.00;0.57;293.86;0.00;0.00;0.62;;;;;18.60;1.00;;;;;;2552560;56;1087;-88
2023/05/10 05:22:10;83755.00;0.28;145.52;0.00;0.00;0.62;;;;;18.50;1.00;;;;;;2550301;56;1072;-86
2023/05/10 05:24:37;46882.00;0.16;81.79;0.00;0.00;0.62;;;;;18.60;1.00;;;;;;2552653;56;1250;-88
2023/05/10 05:27:05;110637.00;0.37;191.93;10794.00;0.04;19.32;;;;;18.60;1.00;;;;;;2552525;56;1546;-85
2023/05/10 05:29:34;294171.00;0.98;507.90;0.00;0.00;0.62;;;;;18.80;1.00;;;;;;2552670;56;1205;-86
2023/05/10 05:32:01;80935.00;0.27;140.65;0.00;0.00;0.62;;;;;18.80;1.00;;;;;;2552634;56;1903;-86
2023/05/10 05:34:28;55540.00;0.19;96.77;0.00;0.00;0.62;;;;;18.80;1.00;;;;;;2552469;56;1364;-87
2023/05/10 05:36:55;330970.00;1.10;571.15;21263.00;0.07;37.46;;;;;18.70;1.00;;;;;;2552613;56;1284;-89
2023/05/10 05:39:22;51642.00;0.17;90.03;0.00;0.00;0.62;;;;;18.90;1.00;;;;;;2550550;56;1097;-87
2023/05/10 05:41:49;80921.00;0.27;140.63;0.00;0.00;0.62;;;;;19.00;1.00;;;;;;2552706;56;933;-88
2023/05/10 05:44:16;120596.00;0.40;209.11;0.00;0.00;0.62;;;;;18.80;1.00;;;;;;2550434;56;1370;-87
2023/05/10 05:46:44;453439.00;1.51;781.70;54950.00;0.18;95.75;;;;;19.00;1.00;;;;;;2550489;56;1087;-87
2023/05/10 05:49:12;6136.00;0.02;11.25;0.00;0.00;0.62;;;;;18.70;1.00;;;;;;2552544;56;954;-87
2023/05/10 05:51:39;155840.00;0.52;269.87;0.00;0.00;0.62;;;;;18.60;1.30;;;;;;2552444;56;1914;-87
2023/05/10 05:54:06;99353.00;0.33;172.46;0.00;0.00;0.62;;;;;18.60;1.00;;;;;;2552692;56;1274;-87
2023/05/10 05:56:33;49918.00;0.17;87.04;0.00;0.00;0.62;;;;;18.30;1.10;;;;;;2552693;56;958;-90
2023/05/10 05:59:00;44550.00;0.15;77.76;0.00;0.00;0.62;;;;;18.20;1.90;;;;;;2550465;56;1026;-88
2023/05/10 06:01:26;24373.00;0.08;42.84;0.00;0.00;0.62;;;;;17.40;4.30;;;;;;2550199;56;1067;-87
2023/05/10 06:03:55;162707.00;0.54;281.70;0.00;0.00;0.62;;;;;17.40;5.00;;;;;;2550261;56;1375;-87
2023/05/10 06:06:22;59494.00;0.20;103.60;0.00;0.00;0.62;;;;;17.00;5.60;;;;;;2550527;56;1021;-87
2023/05/10 06:08:49;94191.00;0.31;163.54;0.00;0.00;0.62;;;;;16.90;6.60;;;;;;2550428;56;957;-87
2023/05/10 06:11:16;87162.00;0.29;151.41;0.00;0.00;0.62;;;;;17.20;6.00;;;;;;2552616;56;1540;-88
2023/05/10 06:13:43;98598.00;0.33;171.15;0.00;0.00;0.62;;;;;17.50;5.20;;;;;;2552569;56;2001;-86
2023/05/10 06:16:10;96162.00;0.32;166.95;0.00;0.00;0.62;;;;;17.60;4.40;;;;;;2552599;56;1617;-87
2023/05/10 06:18:38;260845.00;0.87;450.60;54537.00;0.18;95.03;;;;;17.30;6.40;;;;;;2552562;56;1177;-86
2023/05/10 06:21:06;93934.00;0.31;163.10;0.00;0.00;0.62;;;;;17.50;5.60;;;;;;2550423;56;1072;-85
2023/05/10 06:23:33;101422.00;0.34;176.03;0.00;0.00;0.62;;;;;17.70;4.50;;;;;;2552364;56;1268;-88
2023/05/10 06:26:00;11806.00;0.04;21.08;0.00;0.00;0.62;;;;;17.70;4.40;;;;;;2552674;56;1072;-88
2023/05/10 06:28:27;5843.00;0.02;10.75;0.00;0.00;0.62;;;;;17.70;4.50;;;;;;2552477;56;1504;-85
2023/05/10 06:30:54;87750.00;0.29;152.42;0.00;0.00;0.62;;;;;17.80;4.50;;;;;;2552465;56;1538;-85
2023/05/10 06:33:21;161634.00;0.54;279.85;0.00;0.00;0.62;;;;;17.90;3.80;;;;;;2552295;56;1901;-86
2023/05/10 06:35:48;118960.00;0.40;206.29;0.00;0.00;0.62;;;;;18.00;3.10;;;;;;2552522;56;917;-86
2023/05/10 06:38:17;42288.00;0.14;73.85;0.00;0.00;0.62;;;;;18.10;3.30;;;;;;2550436;56;1120;-87
2023/05/10 06:40:44;48990.00;0.16;85.44;0.00;0.00;0.62;;;;;18.30;3.30;;;;;;2550488;56;1091;-88
2023/05/10 06:43:11;10722.00;0.04;19.20;0.00;0.00;0.62;;;;;18.40;2.20;;;;;;2550467;56;1240;-88
2023/05/10 06:45:38;185240.00;0.62;320.51;70270.00;0.23;122.23;;;;;18.60;1.60;;;;;;2552551;56;2302;-88
2023/05/10 06:48:05;95846.00;0.32;166.40;0.00;0.00;0.62;;;;;18.80;2.10;;;;;;2550284;56;1138;-87
2023/05/10 06:50:33;3333.00;0.01;6.40;0.00;0.00;0.62;;;;;19.10;1.40;;;;;;2552558;56;1556;-88
2023/05/10 06:53:00;22022.00;0.07;38.77;0.00;0.00;0.62;;;;;19.50;1.00;;;;;;2550335;56;1899;-87
2023/05/10 06:55:29;62816.00;0.21;109.34;0.00;0.00;0.62;;;;;19.60;1.00;;;;;;2552384;56;1475;-86
2023/05/10 06:57:56;25969.00;0.09;45.61;0.00;0.00;0.62;;;;;19.90;1.00;;;;;;2550322;56;1095;-87
2023/05/10 07:00:22;143632.00;0.48;248.83;0.00;0.00;0.62;;;;;19.70;1.00;;;;;;2550406;56;1088;-86
2023/05/10 07:02:49;18068.00;0.06;31.92;0.00;0.00;0.62;;;;;19.90;1.00;;;;;;2550207;56;1048;-86
2023/05/10 07:05:16;166504.00;0.56;288.24;0.00;0.00;0.62;;;;;19.90;1.00;;;;;;2552630;56;1395;-87
2023/05/10 07:07:43;132646.00;0.44;229.89;0.00;0.00;0.62;;;;;19.50;1.00;;;;;;2550459;56;1065;-87
2023/05/10 07:10:11;32558.00;0.11;57.01;0.00;0.00;0.62;;;;;19.60;1.00;;;;;;2550239;56;1037;-87
2023/05/10 07:12:39;375347.00;1.25;647.43;27747.00;0.09;48.68;;;;;19.70;1.00;;;;;;2550315;56;1891;-88
2023/05/10 07:15:07;44108.00;0.15;77.00;0.00;0.00;0.62;;;;;20.00;1.00;;;;;;2550368;56;1291;-86
2023/05/10 07:17:34;19576.00;0.07;34.54;0.00;0.00;0.62;;;;;19.90;1.00;;;;;;2550378;56;1075;-86
2023/05/10 07:20:01;11550.00;0.04;20.63;0.00;0.00;0.62;;;;;19.60;1.00;;;;;;2550337;56;1086;-88
2023/05/10 07:22:28;176829.00;0.59;306.03;0.00;0.00;0.62;;;;;19.70;1.00;;;;;;2550419;56;1275;-87
2023/05/10 07:24:55;20549.00;0.07;36.22;0.00;0.00;0.62;;;;;19.80;1.00;;;;;;2550460;56;1275;-87
2023/05/10 07:27:22;0.00;0.00;0.62;0.00;0.00;0.62;;;;;19.80;1.00;;;;;;2552668;56;991;-87
2023/05/10 07:29:51;256704.00;0.86;443.48;0.00;0.00;0.62;;;;;19.50;1.00;;;;;;2550523;56;1091;-87
2023/05/10 07:32:18;124961.00;0.42;216.64;0.00;0.00;0.62;;;;;19.70;1.00;;;;;;2552540;56;1906;-87
2023/05/10 07:34:45;0.00;0.00;0.62;0.00;0.00;0.62;;;;;19.60;1.00;;;;;;2552599;56;1367;-87
2023/05/10 07:37:12;108106.00;0.36;187.56;23270.00;0.08;40.93;;;;;19.60;1.00;;;;;;2552670;56;1012;-87
2023/05/10 07:39:39;17563.00;0.06;31.05;0.00;0.00;0.62;;;;;19.50;1.00;;;;;;2552519;56;1572;-87
2023/05/10 07:42:06;108964.00;0.36;189.04;0.00;0.00;0.62;;;;;19.30;1.00;;;;;;2550498;56;1135;-86
2023/05/10 07:44:32;545.00;0.00;1.56;0.00;0.00;0.62;;;;;19.40;1.00;;;;;;2550470;56;1371;-87
2023/05/10 07:47:01;262800.00;0.88;453.96;47583.00;0.16;83.01;;;;;19.40;1.00;;;;;;2550493;56;988;-90
2023/05/10 07:49:28;84415.00;0.28;146.66;0.00;0.00;0.62;;;;;19.00;1.00;;;;;;2552471;56;1494;-87
2023/05/10 07:51:55;133362.00;0.44;231.13;0.00;0.00;0.62;;;;;19.20;1.00;;;;;;2552527;56;1497;-88
2023/05/10 07:54:23;81601.00;0.27;141.80;0.00;0.00;0.62;;;;;19.30;1.00;;;;;;2552573;56;1956;-88
2023/05/10 07:56:50;58562.00;0.20;101.99;0.00;0.00;0.62;;;;;19.60;1.00;;;;;;2552593;56;1100;-89
2023/05/10 07:59:18;250995.00;0.84;433.66;0.00;0.00;0.62;;;;;19.70;1.00;;;;;;2552535;56;915;-87
2023/05/10 08:01:46;26714.00;0.09;46.89;0.00;0.00;0.62;;;;;19.70;1.00;;;;;;2550426;56;1093;-89
2023/05/10 08:04:15;123854.00;0.41;214.73;0.00;0.00;0.62;;;;;19.60;1.00;;;;;;2552453;56;1699;-87
2023/05/10 08:06:42;121272.00;0.40;210.28;0.00;0.00;0.62;;;;;19.60;1.00;;;;;;2552458;56;931;-87
2023/05/10 08:09:10;79123.00;0.26;137.52;0.00;0.00;0.62;;;;;19.40;1.00;;;;;;2552526;56;1544;-89
2023/05/10 08:11:37;0.00;0.00;0.62;0.00;0.00;0.62;;;;;19.70;1.00;;;;;;2552520;56;1549;-86
2023/05/10 08:14:04;10877.00;0.04;19.47;0.00;0.00;0.62;;;;;19.80;1.00;;;;;;2550372;56;1899;-87
2023/05/10 08:16:32;9067.00;0.03;16.33;0.00;0.00;0.62;;;;;19.70;1.00;;;;;;2550437;56;1084;-87
2023/05/10 08:18:59;25229.00;0.08;44.32;0.00;0.00;0.62;;;;;19.90;1.00;;;;;;2550473;56;1061;-87
2023/05/10 08:21:27;1016004.00;3.39;1760.84;142680.00;0.48;247.19;;;;;19.80;1.00;;;;;;2552529;56;1500;-87
2023/05/10 08:23:54;547302.00;1.82;943.31;16151.00;0.05;28.60;;;;;20.00;1.00;;;;;;2552541;56;1336;-87
2023/05/10 08:26:21;708085.00;2.36;1221.26;48385.00;0.16;84.39;;;;;20.20;1.00;;;;;;2552530;56;1593;-88
2023/05/10 08:28:48;527419.00;1.76;909.05;10024.00;0.03;17.99;;;;;20.10;1.00;;;;;;2550215;56;1231;-87
2023/05/10 08:31:16;605390.00;2.02;1043.53;24018.00;0.08;42.23;;;;;20.40;1.00;;;;;;2552474;56;1538;-88
2023/05/10 08:33:43;780263.00;2.60;1346.72;95698.00;0.32;166.15;;;;;20.70;1.00;;;;;;2552343;56;1899;-86
2023/05/10 08:36:10;968619.00;3.23;1676.97;69534.00;0.23;120.96;;;;;20.80;1.00;;;;;;2552428;56;1519;-86
2023/05/10 08:38:38;915263.00;3.05;1582.94;33192.00;0.11;58.11;;;;;20.70;1.00;;;;;;2550293;56;993;-86
2023/05/10 08:41:06;832584.00;2.78;1438.01;41243.00;0.14;72.04;;;;;20.70;1.00;;;;;;2552610;56;991;-89
2023/05/10 08:43:34;1013401.00;3.38;1756.22;69236.00;0.23;120.44;;;;;20.80;1.00;;;;;;2552379;56;1738;-87
2023/05/10 08:46:02;898968.00;3.00;1554.31;55545.00;0.19;96.77;;;;;20.80;1.00;;;;;;2552420;56;1411;-88
2023/05/10 08:48:30;831030.00;2.77;1435.29;54197.00;0.18;94.44;;;;;20.60;1.00;;;;;;2552500;56;1034;-87
2023/05/10 08:51:00;676919.00;2.26;1167.24;12314.00;0.04;21.96;;;;;20.80;1.00;;;;;;2552400;56;1693;-86
2023/05/10 08:53:34;1110343.00;3.70;1928.93;143241.00;0.48;248.16;;;;;20.70;1.00;;;;;;2552359;56;1948;-88
2023/05/10 08:56:07;684445.00;2.28;1180.27;95304.00;0.32;165.47;;;;;20.80;1.00;;;;;;2552444;56;1716;-87
2023/05/10 08:58:34;989754.00;3.30;1714.33;82481.00;0.27;143.32;;;;;20.90;1.00;;;;;;2552340;56;1619;-88
2023/05/10 09:01:05;885468.00;2.95;1530.61;80129.00;0.27;139.26;;;;;21.60;1.00;;;;;;2552478;56;882;-88
2023/05/10 09:03:32;668218.00;2.23;1152.17;20397.00;0.07;35.96;;;;;22.20;1.00;;;;;;2552368;56;1475;-86
2023/05/10 09:06:00;1112490.00;3.71;1932.77;113859.00;0.38;197.49;;;;;22.40;1.00;;;;;;2552461;56;1646;-87
2023/05/10 09:08:27;959867.00;3.20;1661.52;93537.00;0.31;162.41;;;;;22.40;1.00;;;;;;2552436;56;1456;-88
2023/05/10 09:10:55;1135993.00;3.79;1974.91;69200.00;0.23;120.38;;;;;22.40;1.00;;;;;;2550337;56;1132;-87
2023/05/10 09:20:48;611758.00;2.04;1054.53;0.00;0.00;0.62;;;;;21.90;1.00;;;;;;2556357;56;406;-91
2023/05/10 09:30:40;1137472.00;3.79;1977.57;53448.00;0.18;93.15;;;;;21.50;1.00;;;;;;2546205;56;699;-89
2023/05/10 09:52:59;426827.00;1.42;735.93;12412.00;0.04;22.13;;;;;22.60;1.00;;;;;;2556233;56;1908;-90
2023/05/10 10:00:23;435587.00;1.45;750.99;0.00;0.00;0.62;;;;;23.10;1.00;;;;;;2546188;56;398;-90
2023/05/10 10:41:08;593411.00;1.98;1022.84;76875.00;0.26;133.64;;;;;19.10;1.00;;;;;;2526255;56;3492;31
2023/05/10 14:49:49;42568.00;0.14;74.33;0.00;0.00;0.62;;;;;22.20;1.00;;;;;;2546449;56;402;-91
2023/05/10 17:46:30;16039.00;0.05;28.41;0.00;0.00;0.62;;;;;20.00;1.00;;;;;;2546679;56;681;-90
2023/05/10 18:09:01;344224.00;1.15;593.93;0.00;0.00;0.62;;;;;20.10;1.00;;;;;;2550925;56;3536;-91
2023/05/10 18:13:55;140211.00;0.47;242.93;0.00;0.00;0.62;;;;;20.10;1.00;;;;;;2546248;40;3525;31
2023/05/10 19:28:39;405319.00;1.35;698.95;88697.00;0.30;154.06;;;;;18.40;1.00;;;;;;2527172;40;3329;31
2023/05/10 21:21:25;891051.00;2.97;1540.41;110307.00;0.37;191.36;;;;;18.00;1.00;;;;;;2526508;40;3376;31
2023/05/10 21:28:48;969772.00;3.23;1679.01;103729.00;0.35;180.01;;;;;18.30;1.00;;;;;;2550219;56;818;-83
2023/05/10 21:31:15;1098432.00;3.66;1907.62;145374.00;0.48;251.83;;;;;18.20;1.00;;;;;;2541323;56;1193;-83
2023/05/10 21:33:44;880957.00;2.94;1522.70;108391.00;0.36;188.05;;;;;18.30;1.00;;;;;;2541219;56;1950;-82
2023/05/10 21:36:12;697425.00;2.32;1202.77;91409.00;0.30;158.74;;;;;18.30;1.00;;;;;;2531459;56;1002;-82